Time;durP1;ratioP1;P1;durP2;ratioP2;P2;SDS_P1;SDS_P2;PMS_P1;PMS_P2;Temp;Humidity;BMP_temperature;BMP_pressure;BME280_temperature;BME280_humidity;BME280_pressure;Samples;Min_cycle;Max_cycle;Signal;HPM_P1;HPM_P2
2022/03/22 00:00:58;;;;;;;12.20;7.70;;;11.50;1.00;;;;;;5057503;28;20456;-78
2022/03/22 00:03:29;;;;;;;12.50;7.17;;;11.70;1.00;;;;;;5057238;28;20509;-78
2022/03/22 00:05:58;;;;;;;11.90;8.40;;;11.50;1.00;;;;;;5060270;28;20452;-78
2022/03/22 00:08:26;;;;;;;8.83;7.63;;;11.40;1.00;;;;;;5058668;28;20566;-77
2022/03/22 00:10:55;;;;;;;9.00;6.83;;;11.40;1.00;;;;;;5055873;28;20976;-78
2022/03/22 00:13:24;;;;;;;10.87;7.33;;;11.20;1.00;;;;;;5054297;28;20447;-78
2022/03/22 00:15:55;;;;;;;11.37;9.07;;;11.50;1.00;;;;;;5056015;28;22041;-78
2022/03/22 00:18:46;;;;;;;10.33;7.17;;;11.10;1.00;;;;;;5057642;28;20950;-78
2022/03/22 00:21:14;;;;;;;10.30;7.40;;;11.10;1.00;;;;;;5061387;28;20561;-79
2022/03/22 00:23:43;;;;;;;12.13;8.13;;;11.20;1.00;;;;;;5058139;28;20462;-79
2022/03/22 00:26:11;;;;;;;9.70;8.07;;;11.10;1.00;;;;;;5057107;28;20451;-78
2022/03/22 00:28:39;;;;;;;12.70;8.67;;;11.10;1.00;;;;;;5056745;28;20478;-78
2022/03/22 00:31:08;;;;;;;11.67;7.90;;;11.10;1.00;;;;;;5057153;28;20451;-78
2022/03/22 00:33:37;;;;;;;13.57;9.30;;;11.00;1.00;;;;;;5056105;28;21195;-79
2022/03/22 00:36:06;;;;;;;10.47;8.00;;;11.00;1.00;;;;;;5063039;28;20491;-77
2022/03/22 00:38:35;;;;;;;8.87;7.63;;;11.00;1.00;;;;;;5055628;28;20551;-79
2022/03/22 00:41:03;;;;;;;8.63;7.73;;;10.90;1.00;;;;;;5077270;28;20463;-78
2022/03/22 00:43:34;;;;;;;13.33;8.70;;;10.90;1.00;;;;;;5058327;28;20440;-79
2022/03/22 00:46:03;;;;;;;12.50;7.53;;;10.90;1.00;;;;;;5061620;28;20455;-78
2022/03/22 00:48:31;;;;;;;11.17;7.80;;;11.00;1.00;;;;;;5057744;28;20890;-77
2022/03/22 00:50:59;;;;;;;11.43;7.70;;;10.90;1.00;;;;;;5054374;28;20588;-79
2022/03/22 00:53:29;;;;;;;11.77;8.30;;;10.90;1.00;;;;;;5054275;28;20546;-78
2022/03/22 00:55:57;;;;;;;13.10;9.17;;;10.80;1.00;;;;;;5054547;28;20495;-78
2022/03/22 00:58:26;;;;;;;12.33;8.80;;;10.80;1.00;;;;;;5053462;28;20911;-80
2022/03/22 01:00:54;;;;;;;14.23;8.40;;;10.70;1.00;;;;;;5059457;28;20469;-79
2022/03/22 01:03:23;;;;;;;16.63;7.97;;;10.70;1.00;;;;;;5057861;28;20462;-79
2022/03/22 01:05:52;;;;;;;15.30;8.60;;;10.60;1.00;;;;;;5058424;28;20442;-78
2022/03/22 01:08:20;;;;;;;9.40;6.80;;;10.70;1.00;;;;;;5057451;28;20494;-78
2022/03/22 01:10:53;;;;;;;10.40;7.20;;;10.60;1.00;;;;;;5050996;28;20462;-78
2022/03/22 01:13:22;;;;;;;13.73;8.63;;;10.50;1.00;;;;;;5058141;28;20472;-78
2022/03/22 01:15:50;;;;;;;13.20;7.77;;;10.50;1.00;;;;;;5057479;28;20515;-78
2022/03/22 01:18:19;;;;;;;13.13;8.20;;;10.50;1.00;;;;;;5058380;28;20478;-77
2022/03/22 01:20:49;;;;;;;9.13;6.90;;;10.40;1.00;;;;;;5054206;28;20489;-78
2022/03/22 01:23:19;;;;;;;11.23;8.33;;;10.40;1.00;;;;;;5059485;28;20451;-78
2022/03/22 01:25:48;;;;;;;11.37;7.60;;;10.60;1.00;;;;;;5056628;28;20993;-77
2022/03/22 01:28:19;;;;;;;10.40;7.70;;;10.40;1.00;;;;;;5061917;28;20485;-78
2022/03/22 01:30:47;;;;;;;10.77;8.33;;;10.40;1.00;;;;;;5059110;28;20957;-79
2022/03/22 01:33:15;;;;;;;10.17;7.20;;;10.30;1.00;;;;;;5061958;28;20516;-79
2022/03/22 01:35:44;;;;;;;10.10;7.43;;;10.30;1.00;;;;;;5058801;28;20468;-78
2022/03/22 01:38:13;;;;;;;12.20;8.10;;;10.30;1.00;;;;;;5060454;28;20482;-78
2022/03/22 01:40:42;;;;;;;10.23;6.60;;;10.20;1.00;;;;;;5058947;28;20462;-79
2022/03/22 01:43:10;;;;;;;12.00;7.30;;;10.20;1.00;;;;;;5057218;28;20538;-78
2022/03/22 01:45:40;;;;;;;10.13;8.00;;;10.20;1.00;;;;;;5057020;28;20461;-79
2022/03/22 01:48:08;;;;;;;12.53;7.73;;;10.20;1.00;;;;;;5060751;28;20480;-78
2022/03/22 01:50:37;;;;;;;10.90;7.50;;;10.20;1.00;;;;;;5059072;28;21011;-78
2022/03/22 01:53:09;;;;;;;10.97;7.33;;;10.20;1.00;;;;;;5054968;28;21120;-78
2022/03/22 01:55:38;;;;;;;10.90;7.60;;;10.10;1.00;;;;;;5057780;28;20470;-79
2022/03/22 01:58:06;;;;;;;10.63;7.90;;;10.00;1.00;;;;;;5057369;28;20471;-78
2022/03/22 02:00:35;;;;;;;11.33;7.00;;;10.00;1.00;;;;;;5059999;28;20451;-78
2022/03/22 02:05:55;;;;;;;14.33;7.87;;;9.90;1.00;;;;;;5054733;28;20469;-79
2022/03/22 02:08:31;;;;;;;12.30;8.20;;;10.00;1.00;;;;;;5060332;28;20873;-78
2022/03/22 02:11:01;;;;;;;11.00;7.80;;;10.00;1.00;;;;;;5064131;28;21037;-78
2022/03/22 02:13:31;;;;;;;13.20;8.07;;;10.00;1.00;;;;;;5056072;28;20880;-78
2022/03/22 02:16:02;;;;;;;9.97;8.37;;;9.90;1.00;;;;;;5059619;28;20477;-76
2022/03/22 02:18:33;;;;;;;9.93;7.00;;;9.90;1.00;;;;;;5050149;28;20475;-78
2022/03/22 02:21:02;;;;;;;9.33;7.83;;;9.90;1.00;;;;;;5057696;28;21008;-79
2022/03/22 02:23:50;;;;;;;10.27;7.60;;;9.90;1.00;;;;;;5061880;28;20473;-78
2022/03/22 02:26:19;;;;;;;16.17;7.40;;;9.80;1.00;;;;;;5058984;28;20532;-76
2022/03/22 02:28:53;;;;;;;12.47;7.53;;;10.00;1.00;;;;;;5058557;28;20481;-78
2022/03/22 02:31:22;;;;;;;11.33;7.50;;;9.80;1.00;;;;;;5058949;28;20470;-77
2022/03/22 02:33:51;;;;;;;11.53;6.93;;;9.80;1.00;;;;;;5052687;28;20504;-77
2022/03/22 02:36:19;;;;;;;11.80;8.50;;;9.80;1.00;;;;;;5058465;28;20490;-77
2022/03/22 02:38:49;;;;;;;11.93;7.37;;;9.60;1.00;;;;;;5058367;28;20470;-77
2022/03/22 02:41:18;;;;;;;9.23;8.03;;;9.60;1.00;;;;;;5056207;28;20459;-78
2022/03/22 02:43:49;;;;;;;12.90;7.10;;;9.60;1.00;;;;;;5053544;28;20828;-78
2022/03/22 02:46:17;;;;;;;11.83;8.40;;;9.60;1.00;;;;;;5051200;28;20466;-77
2022/03/22 02:48:46;;;;;;;14.40;8.20;;;9.60;1.00;;;;;;5055835;28;21003;-79
2022/03/22 02:51:15;;;;;;;11.00;7.80;;;9.60;1.00;;;;;;5053373;28;20468;-79
2022/03/22 02:53:43;;;;;;;13.40;8.60;;;9.40;1.00;;;;;;5055445;28;20553;-78
2022/03/22 02:56:13;;;;;;;12.87;8.30;;;9.40;1.00;;;;;;5059401;28;20493;-79
2022/03/22 02:58:41;;;;;;;10.13;8.27;;;9.60;1.00;;;;;;5055005;28;20484;-79
2022/03/22 03:01:10;;;;;;;11.40;7.40;;;9.60;1.00;;;;;;5061082;28;20469;-79
2022/03/22 03:03:39;;;;;;;11.50;6.90;;;9.60;1.00;;;;;;5057003;28;20456;-79
2022/03/22 03:06:07;;;;;;;13.37;7.13;;;9.80;1.00;;;;;;5059032;28;20460;-79
2022/03/22 03:08:35;;;;;;;10.87;7.63;;;9.50;1.00;;;;;;5054177;28;20491;-79
2022/03/22 03:11:04;;;;;;;10.97;8.23;;;9.80;1.00;;;;;;5057442;28;20556;-78
2022/03/22 03:16:16;;;;;;;9.73;7.70;;;9.20;1.00;;;;;;5061185;28;20848;-77
2022/03/22 03:18:44;;;;;;;11.00;6.53;;;9.30;1.00;;;;;;5063947;28;21012;-78
2022/03/22 03:21:13;;;;;;;8.13;6.73;;;9.60;1.00;;;;;;5062882;28;20491;-77
2022/03/22 03:23:41;;;;;;;10.10;7.03;;;9.00;1.00;;;;;;5059094;28;20461;-79
2022/03/22 03:26:10;;;;;;;8.20;6.53;;;9.10;1.00;;;;;;5060674;28;20474;-77
2022/03/22 03:28:39;;;;;;;9.17;6.97;;;9.20;1.00;;;;;;5063870;28;20478;-79
2022/03/22 03:31:07;;;;;;;10.30;7.43;;;9.20;1.00;;;;;;5064449;28;20451;-77
2022/03/22 03:33:36;;;;;;;12.90;7.63;;;9.10;1.00;;;;;;5061155;28;20458;-77
2022/03/22 03:36:05;;;;;;;12.67;7.90;;;9.10;1.00;;;;;;5064735;28;20514;-78
2022/03/22 03:38:41;;;;;;;10.40;7.70;;;9.10;1.00;;;;;;5066968;28;20524;-78
2022/03/22 03:43:58;;;;;;;8.73;7.53;;;9.00;1.00;;;;;;5061517;28;20594;-78
2022/03/22 03:49:23;;;;;;;8.53;7.20;;;8.90;1.00;;;;;;5020741;28;20473;-78
2022/03/22 03:51:51;;;;;;;9.43;7.70;;;9.00;1.00;;;;;;5050742;28;20464;-79
2022/03/22 03:54:20;;;;;;;8.67;7.20;;;9.00;1.00;;;;;;5062873;28;20893;-79
2022/03/22 03:56:49;;;;;;;11.17;7.67;;;8.80;1.00;;;;;;5058248;28;20486;-78
2022/03/22 03:59:18;;;;;;;10.53;7.73;;;8.80;1.00;;;;;;5059876;28;20496;-78
2022/03/22 04:01:46;;;;;;;12.20;7.90;;;8.90;1.00;;;;;;5060268;28;20467;-78
2022/03/22 04:04:14;;;;;;;12.30;7.80;;;8.90;1.00;;;;;;5063126;28;20810;-78
2022/03/22 04:06:43;;;;;;;10.93;8.10;;;8.80;1.00;;;;;;5057943;28;22585;-77
2022/03/22 04:09:11;;;;;;;10.90;7.40;;;8.90;1.00;;;;;;5064080;28;20471;-78
2022/03/22 04:11:39;;;;;;;9.80;6.90;;;8.80;1.00;;;;;;5063119;28;20948;-78
2022/03/22 04:14:08;;;;;;;9.20;7.13;;;8.80;1.00;;;;;;5064097;28;20488;-78
2022/03/22 04:16:38;;;;;;;8.77;7.83;;;8.80;1.00;;;;;;5055579;28;20853;-78
2022/03/22 04:19:07;;;;;;;9.90;7.73;;;8.80;1.00;;;;;;5063629;28;20501;-78
2022/03/22 04:21:36;;;;;;;9.07;7.90;;;8.70;1.00;;;;;;5061921;28;20999;-76
2022/03/22 04:24:22;;;;;;;10.80;7.03;;;8.70;1.00;;;;;;5079823;28;20877;-77
2022/03/22 04:32:44;;;;;;;10.97;6.13;;;8.60;1.00;;;;;;5053597;28;20499;-78
2022/03/22 04:35:14;;;;;;;9.10;6.90;;;8.70;1.00;;;;;;5057594;28;20464;-78
2022/03/22 04:37:42;;;;;;;11.77;8.03;;;8.60;1.00;;;;;;5060974;28;20485;-79
2022/03/22 04:40:12;;;;;;;10.97;8.03;;;8.60;1.00;;;;;;5060611;28;20462;-78
2022/03/22 04:42:41;;;;;;;8.47;7.60;;;8.70;1.00;;;;;;5054215;28;20904;-78
2022/03/22 04:45:11;;;;;;;11.60;7.40;;;8.70;1.00;;;;;;5061459;28;20480;-79
2022/03/22 04:47:40;;;;;;;12.03;7.13;;;8.60;1.00;;;;;;5057090;28;20466;-78
2022/03/22 04:50:10;;;;;;;6.80;5.80;;;8.50;1.00;;;;;;5056566;28;20456;-78
2022/03/22 04:58:10;;;;;;;11.50;6.00;;;8.60;1.00;;;;;;5057268;28;20476;-78
2022/03/22 05:00:38;;;;;;;8.90;6.87;;;8.70;1.00;;;;;;5056653;28;20975;-79
2022/03/22 05:03:08;;;;;;;15.27;7.47;;;8.50;1.00;;;;;;5059035;28;21041;-78
2022/03/22 05:08:22;;;;;;;8.53;6.23;;;8.70;1.00;;;;;;5054720;28;20490;-79
2022/03/22 05:10:50;;;;;;;9.40;6.80;;;8.50;1.00;;;;;;5056674;28;20461;-78
2022/03/22 05:13:21;;;;;;;9.30;6.33;;;8.50;1.00;;;;;;5059106;28;20553;-79
2022/03/22 05:15:49;;;;;;;10.10;6.90;;;8.50;1.00;;;;;;5058110;28;20501;-79
2022/03/22 05:18:19;;;;;;;8.93;6.37;;;8.40;1.00;;;;;;5064870;28;20495;-79
2022/03/22 05:20:47;;;;;;;9.60;6.10;;;8.40;1.00;;;;;;5060029;28;20464;-79
2022/03/22 05:23:17;;;;;;;11.90;7.30;;;8.40;1.00;;;;;;5059513;28;20451;-78
2022/03/22 05:25:45;;;;;;;9.30;7.37;;;8.60;1.00;;;;;;5055484;28;20514;-77
2022/03/22 05:28:14;;;;;;;9.73;6.70;;;8.70;1.00;;;;;;5061934;28;20485;-76
2022/03/22 05:30:42;;;;;;;8.43;6.30;;;8.40;1.00;;;;;;5056610;28;20452;-76
2022/03/22 05:33:10;;;;;;;11.35;8.50;;;8.40;1.00;;;;;;5051965;28;20466;-74
2022/03/22 05:35:40;;;;;;;11.30;6.80;;;8.40;1.00;;;;;;5056701;28;20857;-78
2022/03/22 05:38:08;;;;;;;12.63;7.28;;;8.50;1.00;;;;;;5056800;28;20492;-76
2022/03/22 05:40:38;;;;;;;8.87;6.80;;;8.40;1.00;;;;;;5059436;28;20259;-77
2022/03/22 05:43:06;;;;;;;11.20;7.40;;;8.40;1.00;;;;;;5054902;28;20457;-76
2022/03/22 05:45:35;;;;;;;11.57;7.00;;;8.40;1.00;;;;;;5055921;28;20457;-76
2022/03/22 05:48:07;;;;;;;8.27;7.00;;;8.40;1.00;;;;;;5058219;28;20568;-76
2022/03/22 05:50:35;;;;;;;10.00;7.10;;;8.40;1.00;;;;;;5056748;28;20805;-76
2022/03/22 05:53:04;;;;;;;8.53;6.80;;;8.40;1.00;;;;;;5055390;28;20461;-77
2022/03/22 05:55:32;;;;;;;11.30;7.93;;;8.30;1.00;;;;;;5055010;28;20871;-76
2022/03/22 05:58:01;;;;;;;8.50;7.07;;;8.30;1.00;;;;;;5054614;28;21281;-78
2022/03/22 06:00:29;;;;;;;10.27;6.40;;;8.40;1.00;;;;;;5059271;28;20454;-76
2022/03/22 06:02:57;;;;;;;8.87;6.60;;;8.60;1.00;;;;;;5054319;28;20823;-78
2022/03/22 06:05:28;;;;;;;8.93;7.10;;;8.40;1.00;;;;;;5054746;28;20456;-75
2022/03/22 06:07:57;;;;;;;9.53;6.83;;;8.40;1.00;;;;;;5059867;28;20476;-77
2022/03/22 06:10:28;;;;;;;12.20;7.27;;;8.40;1.00;;;;;;5060243;28;20440;-76
2022/03/22 06:12:58;;;;;;;16.17;7.27;;;8.40;1.00;;;;;;5055730;28;20453;-77
2022/03/22 06:15:28;;;;;;;11.13;7.50;;;8.40;1.00;;;;;;5057598;28;20468;-78
2022/03/22 06:17:58;;;;;;;9.43;7.00;;;8.50;1.00;;;;;;5054847;28;20559;-77
2022/03/22 06:20:28;;;;;;;7.57;6.30;;;8.50;1.00;;;;;;5053794;28;20497;-77
2022/03/22 06:22:57;;;;;;;10.80;7.87;;;8.40;1.00;;;;;;5053691;28;22462;-76
2022/03/22 06:25:26;;;;;;;8.37;7.57;;;8.40;1.00;;;;;;5057533;28;20483;-76
2022/03/22 06:27:56;;;;;;;10.43;7.17;;;8.50;1.00;;;;;;5063422;28;20510;-76
2022/03/22 06:30:25;;;;;;;10.47;6.90;;;8.70;1.00;;;;;;5054718;28;20467;-76
2022/03/22 06:32:56;;;;;;;11.43;7.93;;;8.90;1.00;;;;;;5054184;28;20452;-77
2022/03/22 06:35:26;;;;;;;10.20;7.30;;;9.20;1.00;;;;;;5058195;28;20454;-76
2022/03/22 06:37:55;;;;;;;7.90;6.83;;;9.10;1.00;;;;;;5055364;28;21067;-76
2022/03/22 06:40:27;;;;;;;11.80;7.90;;;9.30;1.00;;;;;;5054122;28;20503;-77
2022/03/22 06:42:58;;;;;;;13.53;8.70;;;9.50;1.00;;;;;;5058656;28;20460;-77
2022/03/22 06:45:26;;;;;;;10.27;8.20;;;9.70;1.00;;;;;;5052520;28;20457;-76
2022/03/22 06:47:55;;;;;;;10.20;8.00;;;9.70;1.00;;;;;;5055537;28;20516;-76
2022/03/22 06:50:25;;;;;;;10.90;8.73;;;9.80;1.00;;;;;;5054391;28;20826;-76
2022/03/22 06:52:54;;;;;;;8.73;7.83;;;9.80;1.00;;;;;;5053163;28;20456;-76
2022/03/22 06:55:23;;;;;;;10.43;7.87;;;9.90;1.00;;;;;;5048905;28;20457;-77
2022/03/22 06:57:58;;;;;;;11.00;8.30;;;10.00;1.00;;;;;;5059174;28;20537;-76
2022/03/22 07:00:27;;;;;;;12.00;7.87;;;10.10;1.00;;;;;;5062043;28;20470;-77
2022/03/22 07:02:56;;;;;;;12.20;8.67;;;10.20;1.00;;;;;;5051974;28;20447;-76
2022/03/22 07:05:25;;;;;;;11.30;8.00;;;10.40;1.00;;;;;;5051962;28;20820;-77
2022/03/22 07:07:53;;;;;;;13.07;9.10;;;10.40;1.00;;;;;;5051552;28;20535;-76
2022/03/22 07:10:21;;;;;;;11.23;8.10;;;10.50;1.00;;;;;;5059329;28;20521;-76
2022/03/22 07:12:52;;;;;;;13.57;8.60;;;10.60;1.00;;;;;;5055209;28;21261;-75
2022/03/22 07:15:26;;;;;;;12.00;8.40;;;10.70;1.00;;;;;;5056059;28;20532;-77
2022/03/22 07:17:54;;;;;;;11.40;9.40;;;10.70;1.00;;;;;;5056884;28;20464;-77
2022/03/22 07:20:23;;;;;;;12.53;8.87;;;10.80;1.00;;;;;;5055087;28;20454;-76
2022/03/22 07:22:53;;;;;;;16.33;9.67;;;10.80;1.00;;;;;;5056007;28;20545;-77
2022/03/22 07:25:22;;;;;;;15.90;9.83;;;10.90;1.00;;;;;;5053952;28;20465;-76
2022/03/22 07:27:51;;;;;;;14.40;9.00;;;10.90;1.00;;;;;;5053715;28;20995;-76
2022/03/22 07:30:19;;;;;;;14.07;8.97;;;11.30;1.00;;;;;;5053626;28;20592;-76
2022/03/22 07:32:49;;;;;;;12.33;9.10;;;11.10;1.00;;;;;;5057245;28;20462;-76
2022/03/22 07:35:19;;;;;;;12.70;8.63;;;11.00;1.00;;;;;;5059991;28;20944;-76
2022/03/22 07:37:48;;;;;;;13.97;10.30;;;11.10;1.00;;;;;;5057462;28;20481;-76
2022/03/22 07:40:20;;;;;;;11.83;9.80;;;11.10;1.00;;;;;;5054255;28;20469;-77
2022/03/22 07:42:48;;;;;;;14.50;9.87;;;11.30;1.00;;;;;;5058129;28;20449;-76
2022/03/22 07:45:19;;;;;;;17.47;10.27;;;11.40;1.00;;;;;;5056405;28;20466;-77
2022/03/22 07:47:49;;;;;;;13.55;10.65;;;11.60;1.00;;;;;;5055303;28;20497;-79
2022/03/22 07:53:07;;;;;;;13.17;9.20;;;11.80;1.00;;;;;;5058202;28;20450;-77
2022/03/22 07:55:39;;;;;;;10.70;8.30;;;12.00;1.00;;;;;;5054307;28;20463;-77
2022/03/22 07:58:08;;;;;;;15.50;9.63;;;12.10;1.00;;;;;;5050849;28;20508;-78
2022/03/22 08:00:38;;;;;;;12.33;9.77;;;12.30;1.00;;;;;;5058506;28;20989;-78
2022/03/22 08:03:12;;;;;;;14.27;9.47;;;12.40;1.00;;;;;;5052093;28;20451;-76
2022/03/22 08:05:41;;;;;;;11.00;9.13;;;12.70;1.00;;;;;;5057727;28;20462;-77
2022/03/22 08:08:09;;;;;;;11.70;9.30;;;12.90;1.00;;;;;;5061444;28;20481;-76
2022/03/22 08:10:57;;;;;;;12.87;8.80;;;13.10;1.00;;;;;;5061173;28;20661;-75
2022/03/22 08:13:26;;;;;;;12.87;9.23;;;13.50;1.00;;;;;;5058212;28;20518;-76
2022/03/22 08:15:54;;;;;;;15.70;10.07;;;13.70;1.00;;;;;;5056390;28;20495;-76
2022/03/22 08:18:24;;;;;;;14.30;9.50;;;13.90;1.00;;;;;;5064611;28;20467;-76
2022/03/22 08:20:53;;;;;;;13.93;8.33;;;14.20;1.00;;;;;;5057895;28;20460;-78
2022/03/22 08:23:21;;;;;;;9.93;8.00;;;14.30;1.00;;;;;;5055350;28;20476;-76
2022/03/22 08:25:51;;;;;;;11.43;8.23;;;14.60;1.00;;;;;;5061036;28;20459;-77
2022/03/22 08:28:21;;;;;;;11.00;8.57;;;14.80;1.00;;;;;;5059745;28;20917;-76
2022/03/22 08:30:49;;;;;;;13.73;9.23;;;14.90;1.00;;;;;;5065739;28;20449;-76
2022/03/22 08:33:18;;;;;;;12.47;8.70;;;14.80;1.00;;;;;;5062162;28;20463;-75
2022/03/22 08:35:49;;;;;;;10.27;7.13;;;14.60;1.00;;;;;;5061479;28;20907;-76
2022/03/22 08:38:20;;;;;;;12.00;9.00;;;14.60;1.00;;;;;;5060607;28;20508;-76
2022/03/22 08:40:49;;;;;;;13.50;9.50;;;14.60;1.00;;;;;;5055871;28;20476;-78
2022/03/22 08:43:19;;;;;;;11.63;8.57;;;14.60;1.00;;;;;;5063488;28;20487;-78
2022/03/22 08:45:47;;;;;;;11.73;8.03;;;14.70;1.00;;;;;;5056772;28;21009;-78
2022/03/22 08:48:15;;;;;;;10.77;7.37;;;14.90;1.00;;;;;;5065033;28;20490;-78
2022/03/22 08:50:46;;;;;;;11.97;8.13;;;14.90;1.00;;;;;;5063599;28;20445;-78
2022/03/22 08:53:17;;;;;;;10.97;8.17;;;14.90;1.00;;;;;;5056640;28;20545;-76
2022/03/22 08:55:52;;;;;;;12.33;8.53;;;14.90;1.00;;;;;;5058975;28;20452;-76
2022/03/22 08:58:20;;;;;;;11.60;9.03;;;14.80;1.00;;;;;;5063173;28;20549;-76
2022/03/22 09:00:49;;;;;;;8.83;7.10;;;14.80;1.00;;;;;;5059710;28;20482;-76
2022/03/22 09:03:19;;;;;;;12.23;8.30;;;14.80;1.00;;;;;;5060852;28;20494;-77
2022/03/22 09:08:35;;;;;;;13.03;8.97;;;15.00;1.00;;;;;;5052721;28;20485;-77
2022/03/22 09:11:04;;;;;;;10.60;8.07;;;15.10;1.00;;;;;;5060776;28;20466;-76
2022/03/22 09:13:38;;;;;;;10.77;7.77;;;15.10;1.00;;;;;;5056438;28;20871;-76
2022/03/22 09:16:09;;;;;;;11.90;8.67;;;15.20;1.00;;;;;;5062816;28;21039;-77
2022/03/22 09:18:38;;;;;;;10.07;8.43;;;15.20;1.00;;;;;;5061564;28;20517;-78
2022/03/22 09:21:06;;;;;;;13.73;9.40;;;15.30;1.00;;;;;;5057993;28;20487;-77
2022/03/22 09:23:40;;;;;;;13.03;8.07;;;15.50;1.00;;;;;;5058182;28;20462;-77
2022/03/22 09:26:08;;;;;;;12.70;9.47;;;15.50;1.00;;;;;;5056706;28;20444;-77
2022/03/22 09:28:37;;;;;;;11.17;8.40;;;15.40;1.00;;;;;;5058661;28;20482;-76
2022/03/22 09:31:07;;;;;;;10.83;8.73;;;15.50;1.00;;;;;;5056060;28;20485;-77
2022/03/22 09:33:36;;;;;;;11.50;8.70;;;15.60;1.00;;;;;;5058641;28;20490;-75
2022/03/22 09:36:04;;;;;;;14.43;10.10;;;15.60;1.00;;;;;;5052772;28;20471;-76
2022/03/22 09:38:32;;;;;;;14.27;9.30;;;15.70;1.00;;;;;;5062158;28;20470;-76
2022/03/22 09:41:02;;;;;;;10.97;8.43;;;15.60;1.00;;;;;;5059734;28;21046;-75
2022/03/22 09:43:33;;;;;;;11.67;8.43;;;15.60;1.00;;;;;;5057741;28;20540;-76
2022/03/22 09:46:04;;;;;;;13.80;10.53;;;15.60;1.00;;;;;;5058360;28;20555;-76
2022/03/22 09:48:34;;;;;;;13.00;9.70;;;15.60;1.00;;;;;;5057120;28;20510;-76
2022/03/22 09:53:52;;;;;;;12.43;8.60;;;15.80;1.00;;;;;;5059853;28;20446;-76
2022/03/22 09:56:21;;;;;;;12.77;9.17;;;15.90;1.00;;;;;;5057968;28;20875;-76
2022/03/22 09:58:51;;;;;;;18.63;9.53;;;16.00;1.00;;;;;;5060432;28;20448;-75
2022/03/22 10:01:21;;;;;;;15.20;9.33;;;16.10;1.00;;;;;;5061068;28;20527;-76
2022/03/22 10:04:00;;;;;;;11.57;9.87;;;16.20;1.00;;;;;;5061737;28;20450;-76
2022/03/22 10:06:32;;;;;;;11.97;9.13;;;16.40;1.00;;;;;;5060790;28;20467;-77
2022/03/22 10:09:01;;;;;;;11.20;8.60;;;16.50;1.00;;;;;;5059744;28;20452;-78
2022/03/22 10:11:40;;;;;;;12.80;8.30;;;16.60;2.30;;;;;;5055217;28;20488;-77
2022/03/22 10:14:09;;;;;;;11.93;8.67;;;16.60;1.00;;;;;;5055334;28;20473;-74
2022/03/22 10:16:50;;;;;;;10.50;8.70;;;16.70;1.00;;;;;;5056603;28;20455;-77
2022/03/22 10:19:23;;;;;;;13.97;9.97;;;16.80;1.00;;;;;;5056919;28;20450;-76
2022/03/22 10:21:53;;;;;;;13.17;10.20;;;16.90;1.00;;;;;;5055363;28;20473;-76
2022/03/22 10:24:22;;;;;;;10.27;8.30;;;16.80;1.00;;;;;;5056161;28;21207;-76
2022/03/22 10:26:51;;;;;;;13.30;9.40;;;16.90;1.00;;;;;;5058714;28;20554;-76
2022/03/22 10:29:20;;;;;;;14.23;10.33;;;17.00;1.00;;;;;;5055329;28;20519;-74
2022/03/22 10:31:49;;;;;;;13.70;10.10;;;17.00;1.00;;;;;;5054264;28;20506;-76
2022/03/22 10:34:18;;;;;;;16.67;9.27;;;17.00;1.00;;;;;;5056768;28;20467;-78
2022/03/22 10:36:46;;;;;;;11.97;8.93;;;17.10;4.20;;;;;;5062741;28;20510;-76
2022/03/22 10:39:14;;;;;;;11.90;10.30;;;17.30;1.00;;;;;;5055519;28;20540;-76
2022/03/22 10:41:45;;;;;;;14.23;8.50;;;17.30;1.00;;;;;;5059862;28;22196;-77
2022/03/22 10:44:16;;;;;;;9.43;8.33;;;17.30;1.00;;;;;;5057673;28;20469;-76
2022/03/22 10:46:48;;;;;;;11.93;9.27;;;17.30;1.00;;;;;;5058044;28;20484;-76
2022/03/22 10:49:18;;;;;;;13.00;9.03;;;17.40;1.00;;;;;;5057850;28;21410;-76
2022/03/22 10:52:09;;;;;;;11.17;8.07;;;17.50;1.00;;;;;;5064341;28;21118;-77
2022/03/22 10:54:38;;;;;;;12.23;8.53;;;17.60;1.00;;;;;;5057911;28;20468;-76
2022/03/22 10:57:08;;;;;;;10.97;8.40;;;17.70;1.00;;;;;;5056451;28;20471;-76
2022/03/22 10:59:39;;;;;;;12.10;9.10;;;17.70;1.00;;;;;;5061144;28;20461;-77
2022/03/22 11:02:11;;;;;;;10.63;8.93;;;17.90;1.00;;;;;;5052485;28;21103;-76
2022/03/22 11:04:41;;;;;;;13.33;9.17;;;17.90;1.00;;;;;;5056401;28;20460;-76
2022/03/22 11:07:10;;;;;;;9.60;8.40;;;18.00;1.00;;;;;;5057965;28;20472;-76
2022/03/22 11:09:39;;;;;;;12.50;8.70;;;17.90;1.00;;;;;;5058548;28;20474;-76
2022/03/22 11:12:09;;;;;;;10.83;9.13;;;17.80;1.00;;;;;;5059473;28;20439;-77
2022/03/22 11:14:39;;;;;;;12.20;9.93;;;17.80;1.00;;;;;;5054055;28;20444;-76
2022/03/22 11:17:08;;;;;;;10.70;8.30;;;17.90;1.00;;;;;;5056486;28;20494;-77
2022/03/22 11:19:36;;;;;;;11.77;9.30;;;18.00;1.00;;;;;;5054492;28;21198;-76
2022/03/22 11:22:05;;;;;;;13.27;9.43;;;18.10;1.80;;;;;;5059309;28;20565;-77
2022/03/22 11:24:37;;;;;;;11.90;9.63;;;18.20;1.80;;;;;;5055851;28;20506;-78
2022/03/22 11:27:08;;;;;;;11.67;8.37;;;18.30;3.30;;;;;;5056032;28;20489;-76
2022/03/22 11:29:40;;;;;;;15.77;8.70;;;18.50;4.30;;;;;;5058508;28;20520;-76
2022/03/22 11:34:55;;;;;;;11.10;7.73;;;18.60;4.80;;;;;;5037376;28;20455;-76
2022/03/22 11:37:29;;;;;;;13.87;10.57;;;18.60;2.90;;;;;;5060603;28;20466;-77
2022/03/22 11:42:52;;;;;;;13.07;9.87;;;18.70;6.10;;;;;;5041343;28;20479;-77
2022/03/22 11:45:22;;;;;;;11.80;9.00;;;18.70;4.80;;;;;;5064255;28;20453;-78
2022/03/22 11:47:54;;;;;;;9.83;8.80;;;18.80;5.80;;;;;;5062853;28;20564;-77
2022/03/22 11:50:23;;;;;;;13.20;10.43;;;18.70;4.90;;;;;;5063064;28;20824;-77
2022/03/22 11:53:01;;;;;;;11.93;9.50;;;18.70;4.70;;;;;;5059724;28;20915;-77
2022/03/22 11:55:30;;;;;;;12.03;9.60;;;18.80;4.90;;;;;;5059097;28;20456;-78
2022/03/22 11:58:04;;;;;;;13.97;11.00;;;18.80;5.80;;;;;;5060577;28;20949;-75
2022/03/22 12:00:44;;;;;;;11.87;9.93;;;18.90;6.90;;;;;;5062261;28;20486;-77
2022/03/22 12:03:15;;;;;;;13.90;9.33;;;19.00;8.50;;;;;;5058309;28;20461;-77
2022/03/22 12:05:43;;;;;;;14.63;10.80;;;19.00;8.50;;;;;;5062350;28;20533;-77
2022/03/22 12:08:13;;;;;;;12.30;10.20;;;19.00;9.00;;;;;;5059315;28;20478;-77
2022/03/22 12:10:46;;;;;;;12.93;10.03;;;19.10;8.70;;;;;;5059268;28;20958;-78
2022/03/22 12:13:15;;;;;;;13.77;10.50;;;19.20;8.70;;;;;;5060351;28;20441;-78
2022/03/22 12:15:57;;;;;;;13.43;9.80;;;19.20;9.80;;;;;;5056086;28;20193;-79
2022/03/22 12:18:29;;;;;;;9.23;7.87;;;19.30;11.30;;;;;;5055050;28;22982;-78
2022/03/22 12:20:58;;;;;;;12.97;8.50;;;19.40;12.20;;;;;;5061512;28;20902;-76
2022/03/22 12:23:27;;;;;;;11.93;8.80;;;19.40;13.40;;;;;;5058591;28;20973;-78
2022/03/22 12:25:56;;;;;;;10.50;8.23;;;19.50;14.30;;;;;;5058986;28;20463;-77
2022/03/22 12:28:24;;;;;;;11.40;8.70;;;19.50;13.20;;;;;;5060653;28;20479;-78
2022/03/22 12:30:54;;;;;;;11.50;8.90;;;19.50;13.90;;;;;;5055890;28;20759;-78
2022/03/22 12:33:23;;;;;;;9.57;8.63;;;19.60;14.70;;;;;;5058889;28;20454;-77
2022/03/22 12:35:51;;;;;;;11.57;8.40;;;19.60;16.20;;;;;;5063673;28;20455;-77
2022/03/22 12:38:20;;;;;;;12.13;9.10;;;19.70;14.10;;;;;;5063212;28;20471;-78
2022/03/22 12:40:49;;;;;;;8.70;7.60;;;19.70;16.40;;;;;;5061928;28;21155;-77
2022/03/22 12:43:19;;;;;;;11.23;9.03;;;19.80;15.20;;;;;;5060016;28;20957;-78
2022/03/22 12:45:49;;;;;;;10.70;8.50;;;19.90;15.30;;;;;;5061397;28;20443;-77
2022/03/22 12:48:20;;;;;;;9.53;7.73;;;19.90;15.00;;;;;;5057894;28;20951;-78
2022/03/22 12:50:51;;;;;;;11.07;9.30;;;19.90;14.80;;;;;;5060478;28;20454;-77
2022/03/22 12:53:19;;;;;;;12.30;8.37;;;19.90;14.00;;;;;;5062109;28;20459;-78
2022/03/22 12:55:48;;;;;;;11.60;8.20;;;19.90;14.80;;;;;;5055783;28;20469;-77
2022/03/22 12:58:16;;;;;;;12.53;9.10;;;19.90;15.70;;;;;;5051529;28;21291;-77
2022/03/22 13:00:44;;;;;;;13.07;9.90;;;20.00;14.60;;;;;;5054712;28;20959;-78
2022/03/22 13:03:16;;;;;;;9.30;8.13;;;20.00;17.00;;;;;;5055393;28;20451;-78
2022/03/22 13:05:47;;;;;;;12.93;9.43;;;20.00;15.30;;;;;;5052968;28;20513;-76
2022/03/22 13:08:19;;;;;;;10.67;9.27;;;20.10;14.80;;;;;;5055930;28;21331;-78
2022/03/22 13:16:25;;;;;;;14.00;9.10;;;20.10;14.00;;;;;;5056738;28;20454;-78
2022/03/22 13:18:57;;;;;;;9.97;8.80;;;20.10;12.50;;;;;;5057842;28;20530;-78
2022/03/22 13:21:29;;;;;;;14.20;8.80;;;20.10;12.10;;;;;;5056823;28;21047;-77
2022/03/22 13:24:06;;;;;;;10.93;8.87;;;20.10;11.00;;;;;;5060810;28;20455;-78
2022/03/22 13:26:34;;;;;;;11.67;8.20;;;20.00;10.60;;;;;;5058895;28;20798;-78
2022/03/22 13:29:13;;;;;;;11.47;9.40;;;20.00;10.20;;;;;;5056971;28;20455;-78
2022/03/22 13:31:54;;;;;;;10.10;8.33;;;20.10;11.90;;;;;;5057377;28;20446;-77
2022/03/22 13:34:23;;;;;;;11.43;8.70;;;20.10;13.20;;;;;;5061159;28;20467;-78
2022/03/22 13:37:04;;;;;;;9.87;7.73;;;20.00;8.90;;;;;;5059695;28;20990;-78
2022/03/22 13:39:33;;;;;;;8.40;7.57;;;20.00;10.00;;;;;;5056495;28;20464;-78
2022/03/22 13:42:15;;;;;;;10.37;7.00;;;20.00;9.50;;;;;;5058555;28;20485;-77
2022/03/22 13:44:56;;;;;;;10.27;8.20;;;20.00;8.80;;;;;;5062798;28;20469;-78
2022/03/22 13:47:30;;;;;;;10.30;8.40;;;20.00;8.00;;;;;;5058758;28;20466;-78
2022/03/22 13:50:00;;;;;;;11.30;9.20;;;20.00;10.70;;;;;;5056527;28;20450;-78